sensor_id;sensor_type;location;lat;lon;timestamp;P1;durP1;ratioP1;P2;durP2;ratioP2
15624;SDS011;7912;51.376;6.126;2022-08-18T00:00:19;40.00;;;35.80;;
15624;SDS011;7912;51.376;6.126;2022-08-18T00:02:48;41.27;;;36.90;;
15624;SDS011;7912;51.376;6.126;2022-08-18T00:05:35;40.13;;;36.00;;
15624;SDS011;7912;51.376;6.126;2022-08-18T00:08:04;40.13;;;35.83;;
15624;SDS011;7912;51.376;6.126;2022-08-18T00:10:32;39.87;;;35.63;;
15624;SDS011;7912;51.376;6.126;2022-08-18T00:13:00;41.87;;;36.73;;
15624;SDS011;7912;51.376;6.126;2022-08-18T00:15:27;40.67;;;36.37;;
15624;SDS011;7912;51.376;6.126;2022-08-18T00:17:54;44.10;;;39.07;;
15624;SDS011;7912;51.376;6.126;2022-08-18T00:20:22;43.80;;;37.60;;
15624;SDS011;7912;51.376;6.126;2022-08-18T00:22:51;46.23;;;39.00;;
15624;SDS011;7912;51.376;6.126;2022-08-18T00:25:21;39.90;;;35.70;;
15624;SDS011;7912;51.376;6.126;2022-08-18T00:27:49;41.67;;;35.47;;
15624;SDS011;7912;51.376;6.126;2022-08-18T00:30:17;45.57;;;38.60;;
15624;SDS011;7912;51.376;6.126;2022-08-18T00:32:49;40.00;;;35.20;;
15624;SDS011;7912;51.376;6.126;2022-08-18T00:35:23;40.63;;;34.83;;
15624;SDS011;7912;51.376;6.126;2022-08-18T00:38:03;40.33;;;36.00;;
15624;SDS011;7912;51.376;6.126;2022-08-18T00:40:49;37.60;;;33.40;;
15624;SDS011;7912;51.376;6.126;2022-08-18T00:46:14;34.03;;;30.37;;
15624;SDS011;7912;51.376;6.126;2022-08-18T00:48:46;37.63;;;31.90;;
15624;SDS011;7912;51.376;6.126;2022-08-18T00:51:20;34.33;;;30.60;;
15624;SDS011;7912;51.376;6.126;2022-08-18T00:53:59;40.43;;;35.10;;
15624;SDS011;7912;51.376;6.126;2022-08-18T00:56:38;42.83;;;36.77;;
15624;SDS011;7912;51.376;6.126;2022-08-18T01:02:18;37.27;;;33.23;;
15624;SDS011;7912;51.376;6.126;2022-08-18T01:05:13;39.03;;;34.77;;
15624;SDS011;7912;51.376;6.126;2022-08-18T01:07:55;41.93;;;37.43;;
15624;SDS011;7912;51.376;6.126;2022-08-18T01:10:23;35.87;;;32.00;;
15624;SDS011;7912;51.376;6.126;2022-08-18T01:12:52;39.73;;;34.90;;
15624;SDS011;7912;51.376;6.126;2022-08-18T01:15:24;37.77;;;33.67;;
15624;SDS011;7912;51.376;6.126;2022-08-18T01:17:59;39.93;;;35.47;;
15624;SDS011;7912;51.376;6.126;2022-08-18T01:21:04;38.00;;;33.13;;
15624;SDS011;7912;51.376;6.126;2022-08-18T01:24:06;36.10;;;31.77;;
15624;SDS011;7912;51.376;6.126;2022-08-18T01:26:38;41.10;;;35.77;;
15624;SDS011;7912;51.376;6.126;2022-08-18T01:29:11;37.67;;;33.30;;
15624;SDS011;7912;51.376;6.126;2022-08-18T01:31:46;42.20;;;36.77;;
15624;SDS011;7912;51.376;6.126;2022-08-18T01:34:21;41.60;;;36.90;;
15624;SDS011;7912;51.376;6.126;2022-08-18T01:36:51;47.73;;;40.23;;
15624;SDS011;7912;51.376;6.126;2022-08-18T01:39:20;40.47;;;36.10;;
15624;SDS011;7912;51.376;6.126;2022-08-18T01:42:09;43.47;;;36.00;;
15624;SDS011;7912;51.376;6.126;2022-08-18T01:44:42;39.03;;;34.37;;
15624;SDS011;7912;51.376;6.126;2022-08-18T01:47:14;41.47;;;35.30;;
15624;SDS011;7912;51.376;6.126;2022-08-18T01:49:43;45.50;;;37.77;;
15624;SDS011;7912;51.376;6.126;2022-08-18T01:52:18;41.37;;;35.93;;
15624;SDS011;7912;51.376;6.126;2022-08-18T01:54:47;43.10;;;36.23;;
15624;SDS011;7912;51.376;6.126;2022-08-18T01:57:16;40.03;;;35.70;;
15624;SDS011;7912;51.376;6.126;2022-08-18T01:59:45;43.20;;;36.20;;
15624;SDS011;7912;51.376;6.126;2022-08-18T02:02:14;44.27;;;38.10;;
15624;SDS011;7912;51.376;6.126;2022-08-18T02:04:51;47.23;;;38.30;;
15624;SDS011;7912;51.376;6.126;2022-08-18T02:07:21;46.20;;;37.90;;
15624;SDS011;7912;51.376;6.126;2022-08-18T02:09:59;47.70;;;41.67;;
15624;SDS011;7912;51.376;6.126;2022-08-18T02:12:27;45.97;;;38.87;;
15624;SDS011;7912;51.376;6.126;2022-08-18T02:14:54;44.30;;;36.60;;
15624;SDS011;7912;51.376;6.126;2022-08-18T02:17:22;38.50;;;32.90;;
15624;SDS011;7912;51.376;6.126;2022-08-18T02:19:49;43.13;;;37.13;;
15624;SDS011;7912;51.376;6.126;2022-08-18T02:22:17;43.17;;;36.60;;
15624;SDS011;7912;51.376;6.126;2022-08-18T02:24:46;48.17;;;41.00;;
15624;SDS011;7912;51.376;6.126;2022-08-18T02:27:13;50.97;;;41.63;;
15624;SDS011;7912;51.376;6.126;2022-08-18T02:29:42;41.73;;;37.10;;
15624;SDS011;7912;51.376;6.126;2022-08-18T02:32:09;44.00;;;39.07;;
15624;SDS011;7912;51.376;6.126;2022-08-18T02:34:36;47.60;;;41.67;;
15624;SDS011;7912;51.376;6.126;2022-08-18T02:37:03;42.10;;;37.43;;
15624;SDS011;7912;51.376;6.126;2022-08-18T02:39:32;47.00;;;40.20;;
15624;SDS011;7912;51.376;6.126;2022-08-18T02:42:03;45.03;;;40.03;;
15624;SDS011;7912;51.376;6.126;2022-08-18T02:44:32;44.10;;;39.27;;
15624;SDS011;7912;51.376;6.126;2022-08-18T02:47:00;42.83;;;38.20;;
15624;SDS011;7912;51.376;6.126;2022-08-18T02:49:28;41.30;;;35.50;;
15624;SDS011;7912;51.376;6.126;2022-08-18T02:51:55;43.33;;;38.60;;
15624;SDS011;7912;51.376;6.126;2022-08-18T02:54:23;44.87;;;38.97;;
15624;SDS011;7912;51.376;6.126;2022-08-18T02:56:51;40.43;;;36.03;;
15624;SDS011;7912;51.376;6.126;2022-08-18T02:59:23;39.97;;;35.70;;
15624;SDS011;7912;51.376;6.126;2022-08-18T03:01:56;40.27;;;36.00;;
15624;SDS011;7912;51.376;6.126;2022-08-18T03:04:24;39.63;;;35.37;;
15624;SDS011;7912;51.376;6.126;2022-08-18T03:06:56;41.60;;;37.07;;
15624;SDS011;7912;51.376;6.126;2022-08-18T03:09:30;41.63;;;37.17;;
15624;SDS011;7912;51.376;6.126;2022-08-18T03:11:59;42.63;;;37.93;;
15624;SDS011;7912;51.376;6.126;2022-08-18T03:14:27;40.30;;;36.07;;
15624;SDS011;7912;51.376;6.126;2022-08-18T03:16:55;39.60;;;35.33;;
15624;SDS011;7912;51.376;6.126;2022-08-18T03:19:23;42.47;;;38.07;;
15624;SDS011;7912;51.376;6.126;2022-08-18T03:21:54;42.53;;;37.90;;
15624;SDS011;7912;51.376;6.126;2022-08-18T03:24:29;38.97;;;34.87;;
15624;SDS011;7912;51.376;6.126;2022-08-18T03:27:03;38.53;;;34.47;;
15624;SDS011;7912;51.376;6.126;2022-08-18T03:29:32;35.53;;;31.83;;
15624;SDS011;7912;51.376;6.126;2022-08-18T03:32:01;36.10;;;32.50;;
15624;SDS011;7912;51.376;6.126;2022-08-18T03:34:32;37.00;;;32.53;;
15624;SDS011;7912;51.376;6.126;2022-08-18T03:37:00;37.87;;;33.97;;
15624;SDS011;7912;51.376;6.126;2022-08-18T03:39:27;36.37;;;32.67;;
15624;SDS011;7912;51.376;6.126;2022-08-18T03:41:55;41.60;;;36.70;;
15624;SDS011;7912;51.376;6.126;2022-08-18T03:44:31;39.13;;;34.93;;
15624;SDS011;7912;51.376;6.126;2022-08-18T03:47:07;36.93;;;32.97;;
15624;SDS011;7912;51.376;6.126;2022-08-18T03:49:36;38.87;;;34.77;;
15624;SDS011;7912;51.376;6.126;2022-08-18T03:52:06;37.60;;;33.50;;
15624;SDS011;7912;51.376;6.126;2022-08-18T03:54:35;38.63;;;34.60;;
15624;SDS011;7912;51.376;6.126;2022-08-18T03:57:06;36.73;;;32.77;;
15624;SDS011;7912;51.376;6.126;2022-08-18T03:59:35;34.77;;;30.93;;
15624;SDS011;7912;51.376;6.126;2022-08-18T04:02:06;40.07;;;35.80;;
15624;SDS011;7912;51.376;6.126;2022-08-18T04:04:33;35.93;;;32.13;;
15624;SDS011;7912;51.376;6.126;2022-08-18T04:07:06;39.57;;;35.37;;
15624;SDS011;7912;51.376;6.126;2022-08-18T04:09:36;36.23;;;32.60;;
15624;SDS011;7912;51.376;6.126;2022-08-18T04:12:06;40.03;;;35.93;;
15624;SDS011;7912;51.376;6.126;2022-08-18T04:14:41;40.13;;;35.83;;
15624;SDS011;7912;51.376;6.126;2022-08-18T04:17:13;37.20;;;33.33;;
15624;SDS011;7912;51.376;6.126;2022-08-18T04:19:49;39.77;;;35.47;;
15624;SDS011;7912;51.376;6.126;2022-08-18T04:22:18;37.90;;;33.90;;
15624;SDS011;7912;51.376;6.126;2022-08-18T04:24:46;34.90;;;31.27;;
15624;SDS011;7912;51.376;6.126;2022-08-18T04:27:16;34.90;;;31.27;;
15624;SDS011;7912;51.376;6.126;2022-08-18T04:29:47;35.53;;;31.87;;
15624;SDS011;7912;51.376;6.126;2022-08-18T04:32:15;34.53;;;30.90;;
15624;SDS011;7912;51.376;6.126;2022-08-18T04:34:42;35.77;;;32.10;;
15624;SDS011;7912;51.376;6.126;2022-08-18T04:37:10;37.03;;;33.23;;
15624;SDS011;7912;51.376;6.126;2022-08-18T04:39:39;36.20;;;32.57;;
15624;SDS011;7912;51.376;6.126;2022-08-18T04:42:07;37.30;;;33.50;;
15624;SDS011;7912;51.376;6.126;2022-08-18T04:44:35;38.37;;;34.47;;
15624;SDS011;7912;51.376;6.126;2022-08-18T04:47:05;34.63;;;31.03;;
15624;SDS011;7912;51.376;6.126;2022-08-18T04:49:34;36.47;;;32.73;;
15624;SDS011;7912;51.376;6.126;2022-08-18T04:52:03;35.03;;;31.33;;
15624;SDS011;7912;51.376;6.126;2022-08-18T04:55:06;38.20;;;34.33;;
15624;SDS011;7912;51.376;6.126;2022-08-18T04:57:35;36.40;;;32.67;;
15624;SDS011;7912;51.376;6.126;2022-08-18T05:00:04;36.13;;;32.37;;
15624;SDS011;7912;51.376;6.126;2022-08-18T05:02:33;37.47;;;33.60;;
15624;SDS011;7912;51.376;6.126;2022-08-18T05:05:00;35.90;;;32.17;;
15624;SDS011;7912;51.376;6.126;2022-08-18T05:07:29;34.57;;;30.90;;
15624;SDS011;7912;51.376;6.126;2022-08-18T05:09:58;37.57;;;33.57;;
15624;SDS011;7912;51.376;6.126;2022-08-18T05:12:25;37.10;;;33.27;;
15624;SDS011;7912;51.376;6.126;2022-08-18T05:14:54;37.20;;;33.33;;
15624;SDS011;7912;51.376;6.126;2022-08-18T05:17:24;33.93;;;30.33;;
15624;SDS011;7912;51.376;6.126;2022-08-18T05:19:55;36.50;;;32.67;;
15624;SDS011;7912;51.376;6.126;2022-08-18T05:22:27;33.43;;;30.07;;
15624;SDS011;7912;51.376;6.126;2022-08-18T05:24:56;35.90;;;32.17;;
15624;SDS011;7912;51.376;6.126;2022-08-18T05:27:29;38.80;;;34.73;;
15624;SDS011;7912;51.376;6.126;2022-08-18T05:30:03;37.40;;;33.37;;
15624;SDS011;7912;51.376;6.126;2022-08-18T05:35:21;30.77;;;27.50;;
15624;SDS011;7912;51.376;6.126;2022-08-18T05:44:08;25.77;;;22.97;;
15624;SDS011;7912;51.376;6.126;2022-08-18T05:46:46;26.33;;;23.40;;
15624;SDS011;7912;51.376;6.126;2022-08-18T05:49:21;22.60;;;20.30;;
15624;SDS011;7912;51.376;6.126;2022-08-18T05:51:58;24.10;;;21.57;;
15624;SDS011;7912;51.376;6.126;2022-08-18T06:01:23;17.63;;;15.97;;
15624;SDS011;7912;51.376;6.126;2022-08-18T06:07:01;16.50;;;14.50;;
15624;SDS011;7912;51.376;6.126;2022-08-18T06:09:54;18.67;;;16.10;;
15624;SDS011;7912;51.376;6.126;2022-08-18T06:12:31;17.70;;;16.00;;
15624;SDS011;7912;51.376;6.126;2022-08-18T06:20:59;15.27;;;13.77;;
15624;SDS011;7912;51.376;6.126;2022-08-18T06:24:15;14.87;;;13.37;;
15624;SDS011;7912;51.376;6.126;2022-08-18T06:33:12;14.83;;;13.30;;
15624;SDS011;7912;51.376;6.126;2022-08-18T06:36:08;14.87;;;13.57;;
15624;SDS011;7912;51.376;6.126;2022-08-18T06:41:49;14.17;;;12.97;;
15624;SDS011;7912;51.376;6.126;2022-08-18T06:44:20;14.27;;;12.87;;
15624;SDS011;7912;51.376;6.126;2022-08-18T06:46:56;14.40;;;13.00;;
15624;SDS011;7912;51.376;6.126;2022-08-18T06:49:38;15.17;;;13.77;;
15624;SDS011;7912;51.376;6.126;2022-08-18T06:55:16;16.33;;;14.83;;
15624;SDS011;7912;51.376;6.126;2022-08-18T07:06:26;18.47;;;16.57;;
15624;SDS011;7912;51.376;6.126;2022-08-18T07:11:59;14.80;;;13.50;;
15624;SDS011;7912;51.376;6.126;2022-08-18T07:14:46;14.80;;;13.33;;
15624;SDS011;7912;51.376;6.126;2022-08-18T07:17:23;11.63;;;10.53;;
15624;SDS011;7912;51.376;6.126;2022-08-18T07:22:54;11.53;;;10.50;;
15624;SDS011;7912;51.376;6.126;2022-08-18T07:25:44;11.80;;;10.80;;
15624;SDS011;7912;51.376;6.126;2022-08-18T07:28:25;11.20;;;10.23;;
15624;SDS011;7912;51.376;6.126;2022-08-18T07:31:13;10.73;;;9.73;;
15624;SDS011;7912;51.376;6.126;2022-08-18T07:34:02;10.43;;;9.43;;
15624;SDS011;7912;51.376;6.126;2022-08-18T07:36:41;11.80;;;10.77;;
15624;SDS011;7912;51.376;6.126;2022-08-18T07:39:37;11.50;;;10.30;;
15624;SDS011;7912;51.376;6.126;2022-08-18T07:42:18;12.93;;;11.67;;
15624;SDS011;7912;51.376;6.126;2022-08-18T07:59:17;14.03;;;12.83;;
15624;SDS011;7912;51.376;6.126;2022-08-18T08:05:23;14.80;;;13.40;;
15624;SDS011;7912;51.376;6.126;2022-08-18T08:08:24;11.83;;;10.77;;
15624;SDS011;7912;51.376;6.126;2022-08-18T08:11:40;12.93;;;11.83;;
15624;SDS011;7912;51.376;6.126;2022-08-18T08:20:30;11.07;;;10.07;;
15624;SDS011;7912;51.376;6.126;2022-08-18T08:26:34;12.47;;;11.37;;
15624;SDS011;7912;51.376;6.126;2022-08-18T08:32:04;12.57;;;11.47;;
15624;SDS011;7912;51.376;6.126;2022-08-18T08:38:39;11.20;;;10.10;;
15624;SDS011;7912;51.376;6.126;2022-08-18T08:41:17;10.40;;;9.50;;
15624;SDS011;7912;51.376;6.126;2022-08-18T08:43:53;10.97;;;10.07;;
15624;SDS011;7912;51.376;6.126;2022-08-18T08:46:41;11.87;;;10.67;;
15624;SDS011;7912;51.376;6.126;2022-08-18T08:53:02;9.47;;;8.63;;
15624;SDS011;7912;51.376;6.126;2022-08-18T08:55:46;9.00;;;8.20;;
15624;SDS011;7912;51.376;6.126;2022-08-18T09:22:55;10.93;;;9.33;;
15624;SDS011;7912;51.376;6.126;2022-08-18T09:39:32;10.33;;;9.43;;
15624;SDS011;7912;51.376;6.126;2022-08-18T09:48:01;11.73;;;10.63;;
15624;SDS011;7912;51.376;6.126;2022-08-18T10:02:11;11.80;;;10.60;;
15624;SDS011;7912;51.376;6.126;2022-08-18T10:07:48;12.23;;;11.13;;
15624;SDS011;7912;51.376;6.126;2022-08-18T10:13:46;11.17;;;10.27;;
15624;SDS011;7912;51.376;6.126;2022-08-18T10:16:47;11.30;;;10.40;;
15624;SDS011;7912;51.376;6.126;2022-08-18T10:22:51;12.13;;;10.93;;
15624;SDS011;7912;51.376;6.126;2022-08-18T10:25:30;12.83;;;11.63;;
15624;SDS011;7912;51.376;6.126;2022-08-18T10:27:57;15.73;;;14.13;;
15624;SDS011;7912;51.376;6.126;2022-08-18T10:36:46;12.30;;;11.10;;
15624;SDS011;7912;51.376;6.126;2022-08-18T10:45:19;12.20;;;11.07;;
15624;SDS011;7912;51.376;6.126;2022-08-18T10:48:16;11.73;;;10.60;;
15624;SDS011;7912;51.376;6.126;2022-08-18T10:53:53;10.83;;;9.73;;
15624;SDS011;7912;51.376;6.126;2022-08-18T10:57:25;12.10;;;11.00;;
15624;SDS011;7912;51.376;6.126;2022-08-18T11:06:41;12.10;;;11.00;;
15624;SDS011;7912;51.376;6.126;2022-08-18T11:09:25;12.17;;;11.17;;
15624;SDS011;7912;51.376;6.126;2022-08-18T11:11:56;11.43;;;10.53;;
15624;SDS011;7912;51.376;6.126;2022-08-18T11:20:36;10.57;;;9.67;;
15624;SDS011;7912;51.376;6.126;2022-08-18T11:23:14;11.67;;;10.67;;
15624;SDS011;7912;51.376;6.126;2022-08-18T11:25:43;10.73;;;9.83;;
15624;SDS011;7912;51.376;6.126;2022-08-18T11:28:22;11.07;;;10.07;;
15624;SDS011;7912;51.376;6.126;2022-08-18T11:30:56;12.03;;;10.93;;
15624;SDS011;7912;51.376;6.126;2022-08-18T11:33:25;11.50;;;10.50;;
15624;SDS011;7912;51.376;6.126;2022-08-18T11:35:56;12.37;;;11.47;;
15624;SDS011;7912;51.376;6.126;2022-08-18T11:38:27;10.73;;;9.83;;
15624;SDS011;7912;51.376;6.126;2022-08-18T11:41:17;11.10;;;10.10;;
15624;SDS011;7912;51.376;6.126;2022-08-18T11:44:12;10.10;;;9.20;;
15624;SDS011;7912;51.376;6.126;2022-08-18T11:46:48;9.70;;;8.70;;
15624;SDS011;7912;51.376;6.126;2022-08-18T11:49:31;8.70;;;7.90;;
15624;SDS011;7912;51.376;6.126;2022-08-18T11:52:00;9.60;;;8.80;;
15624;SDS011;7912;51.376;6.126;2022-08-18T11:55:00;9.63;;;8.80;;
15624;SDS011;7912;51.376;6.126;2022-08-18T11:57:49;9.40;;;8.50;;
15624;SDS011;7912;51.376;6.126;2022-08-18T12:03:30;7.67;;;7.07;;
15624;SDS011;7912;51.376;6.126;2022-08-18T12:08:58;7.53;;;6.70;;
15624;SDS011;7912;51.376;6.126;2022-08-18T12:11:36;6.80;;;6.20;;
15624;SDS011;7912;51.376;6.126;2022-08-18T12:14:29;7.80;;;7.23;;
15624;SDS011;7912;51.376;6.126;2022-08-18T12:17:16;7.10;;;6.50;;
15624;SDS011;7912;51.376;6.126;2022-08-18T12:19:45;7.80;;;7.20;;
15624;SDS011;7912;51.376;6.126;2022-08-18T12:22:16;6.33;;;5.73;;
15624;SDS011;7912;51.376;6.126;2022-08-18T12:24:50;8.00;;;7.27;;
15624;SDS011;7912;51.376;6.126;2022-08-18T12:27:22;8.37;;;7.57;;
15624;SDS011;7912;51.376;6.126;2022-08-18T12:29:57;8.30;;;7.50;;
15624;SDS011;7912;51.376;6.126;2022-08-18T12:32:28;7.70;;;7.10;;
15624;SDS011;7912;51.376;6.126;2022-08-18T12:35:15;7.77;;;7.17;;
15624;SDS011;7912;51.376;6.126;2022-08-18T12:37:47;7.43;;;6.83;;
15624;SDS011;7912;51.376;6.126;2022-08-18T12:40:35;8.00;;;7.40;;
15624;SDS011;7912;51.376;6.126;2022-08-18T12:43:03;8.00;;;7.30;;
15624;SDS011;7912;51.376;6.126;2022-08-18T12:45:32;6.57;;;6.03;;
15624;SDS011;7912;51.376;6.126;2022-08-18T12:48:03;8.40;;;7.60;;
15624;SDS011;7912;51.376;6.126;2022-08-18T12:50:32;7.83;;;7.13;;
15624;SDS011;7912;51.376;6.126;2022-08-18T12:53:22;7.17;;;6.57;;
15624;SDS011;7912;51.376;6.126;2022-08-18T12:56:03;7.30;;;6.70;;
15624;SDS011;7912;51.376;6.126;2022-08-18T12:58:44;6.40;;;5.90;;
15624;SDS011;7912;51.376;6.126;2022-08-18T13:01:12;6.37;;;5.57;;
15624;SDS011;7912;51.376;6.126;2022-08-18T13:03:43;6.33;;;5.83;;
15624;SDS011;7912;51.376;6.126;2022-08-18T13:06:33;7.07;;;6.43;;
15624;SDS011;7912;51.376;6.126;2022-08-18T13:09:19;7.30;;;6.60;;
15624;SDS011;7912;51.376;6.126;2022-08-18T13:12:08;7.93;;;7.23;;
15624;SDS011;7912;51.376;6.126;2022-08-18T13:14:41;7.57;;;6.90;;
15624;SDS011;7912;51.376;6.126;2022-08-18T13:17:09;6.20;;;5.70;;
15624;SDS011;7912;51.376;6.126;2022-08-18T13:19:59;6.10;;;5.60;;
15624;SDS011;7912;51.376;6.126;2022-08-18T13:22:30;6.50;;;6.00;;
15624;SDS011;7912;51.376;6.126;2022-08-18T13:25:02;6.70;;;6.10;;
15624;SDS011;7912;51.376;6.126;2022-08-18T13:27:33;5.83;;;5.37;;
15624;SDS011;7912;51.376;6.126;2022-08-18T13:30:07;6.93;;;6.33;;
15624;SDS011;7912;51.376;6.126;2022-08-18T13:32:56;7.40;;;6.70;;
15624;SDS011;7912;51.376;6.126;2022-08-18T13:35:37;6.50;;;6.03;;
15624;SDS011;7912;51.376;6.126;2022-08-18T13:38:13;6.67;;;6.07;;
15624;SDS011;7912;51.376;6.126;2022-08-18T13:40:51;6.90;;;6.30;;
15624;SDS011;7912;51.376;6.126;2022-08-18T13:43:26;6.10;;;5.60;;
15624;SDS011;7912;51.376;6.126;2022-08-18T13:45:59;7.10;;;6.40;;
15624;SDS011;7912;51.376;6.126;2022-08-18T13:48:29;7.17;;;6.47;;
15624;SDS011;7912;51.376;6.126;2022-08-18T13:50:59;7.07;;;6.50;;
15624;SDS011;7912;51.376;6.126;2022-08-18T13:53:29;8.30;;;7.60;;
15624;SDS011;7912;51.376;6.126;2022-08-18T13:55:57;6.97;;;6.47;;
15624;SDS011;7912;51.376;6.126;2022-08-18T13:58:26;6.93;;;6.30;;
15624;SDS011;7912;51.376;6.126;2022-08-18T14:00:56;6.83;;;6.33;;
15624;SDS011;7912;51.376;6.126;2022-08-18T14:03:47;6.67;;;6.07;;
15624;SDS011;7912;51.376;6.126;2022-08-18T14:06:15;6.67;;;6.07;;
15624;SDS011;7912;51.376;6.126;2022-08-18T14:08:49;8.33;;;7.57;;
15624;SDS011;7912;51.376;6.126;2022-08-18T14:11:19;7.53;;;6.90;;
15624;SDS011;7912;51.376;6.126;2022-08-18T14:13:58;6.60;;;5.97;;
15624;SDS011;7912;51.376;6.126;2022-08-18T14:16:27;7.50;;;6.40;;
15624;SDS011;7912;51.376;6.126;2022-08-18T14:18:56;6.80;;;6.27;;
15624;SDS011;7912;51.376;6.126;2022-08-18T14:21:44;6.50;;;5.90;;
15624;SDS011;7912;51.376;6.126;2022-08-18T14:24:37;5.90;;;5.40;;
15624;SDS011;7912;51.376;6.126;2022-08-18T14:27:30;6.87;;;6.27;;
15624;SDS011;7912;51.376;6.126;2022-08-18T14:30:04;7.40;;;6.90;;
15624;SDS011;7912;51.376;6.126;2022-08-18T14:32:35;7.53;;;6.83;;
15624;SDS011;7912;51.376;6.126;2022-08-18T14:35:14;6.20;;;5.80;;
15624;SDS011;7912;51.376;6.126;2022-08-18T14:37:59;7.03;;;6.43;;
15624;SDS011;7912;51.376;6.126;2022-08-18T14:40:30;5.93;;;5.33;;
15624;SDS011;7912;51.376;6.126;2022-08-18T14:42:58;6.50;;;5.90;;
15624;SDS011;7912;51.376;6.126;2022-08-18T14:45:31;5.73;;;5.33;;
15624;SDS011;7912;51.376;6.126;2022-08-18T14:48:04;6.47;;;5.87;;
15624;SDS011;7912;51.376;6.126;2022-08-18T14:50:36;5.20;;;4.80;;
15624;SDS011;7912;51.376;6.126;2022-08-18T14:53:15;5.27;;;4.77;;
15624;SDS011;7912;51.376;6.126;2022-08-18T14:55:46;6.00;;;5.40;;
15624;SDS011;7912;51.376;6.126;2022-08-18T14:58:18;6.10;;;5.60;;
15624;SDS011;7912;51.376;6.126;2022-08-18T15:00:53;6.27;;;5.77;;
15624;SDS011;7912;51.376;6.126;2022-08-18T15:03:24;6.23;;;5.73;;
15624;SDS011;7912;51.376;6.126;2022-08-18T15:05:57;6.10;;;5.60;;
15624;SDS011;7912;51.376;6.126;2022-08-18T15:08:30;5.90;;;5.40;;
15624;SDS011;7912;51.376;6.126;2022-08-18T15:11:01;6.33;;;4.97;;
15624;SDS011;7912;51.376;6.126;2022-08-18T15:13:38;5.23;;;4.83;;
15624;SDS011;7912;51.376;6.126;2022-08-18T15:16:11;5.37;;;4.97;;
15624;SDS011;7912;51.376;6.126;2022-08-18T15:18:41;5.15;;;4.75;;
15624;SDS011;7912;51.376;6.126;2022-08-18T15:21:10;6.07;;;4.55;;
15624;SDS011;7912;51.376;6.126;2022-08-18T15:24:04;5.30;;;4.90;;
15624;SDS011;7912;51.376;6.126;2022-08-18T15:26:53;4.80;;;4.40;;
15624;SDS011;7912;51.376;6.126;2022-08-18T15:29:31;4.95;;;4.47;;
15624;SDS011;7912;51.376;6.126;2022-08-18T15:31:59;4.83;;;4.40;;
15624;SDS011;7912;51.376;6.126;2022-08-18T15:34:36;4.60;;;4.25;;
15624;SDS011;7912;51.376;6.126;2022-08-18T15:37:13;4.83;;;4.53;;
15624;SDS011;7912;51.376;6.126;2022-08-18T15:39:46;4.60;;;4.30;;
15624;SDS011;7912;51.376;6.126;2022-08-18T15:42:21;4.87;;;4.43;;
15624;SDS011;7912;51.376;6.126;2022-08-18T15:44:48;5.33;;;4.93;;
15624;SDS011;7912;51.376;6.126;2022-08-18T15:47:19;4.50;;;4.20;;
15624;SDS011;7912;51.376;6.126;2022-08-18T15:49:50;4.13;;;3.83;;
15624;SDS011;7912;51.376;6.126;2022-08-18T15:52:20;4.70;;;4.30;;
15624;SDS011;7912;51.376;6.126;2022-08-18T15:54:51;5.18;;;4.75;;
15624;SDS011;7912;51.376;6.126;2022-08-18T15:57:27;5.20;;;4.80;;
15624;SDS011;7912;51.376;6.126;2022-08-18T16:00:05;7.25;;;5.32;;
15624;SDS011;7912;51.376;6.126;2022-08-18T16:02:38;6.00;;;5.50;;
15624;SDS011;7912;51.376;6.126;2022-08-18T16:05:13;4.80;;;4.50;;
15624;SDS011;7912;51.376;6.126;2022-08-18T16:07:42;5.50;;;5.00;;
15624;SDS011;7912;51.376;6.126;2022-08-18T16:10:12;6.47;;;5.90;;
15624;SDS011;7912;51.376;6.126;2022-08-18T16:12:42;5.03;;;4.70;;
15624;SDS011;7912;51.376;6.126;2022-08-18T16:15:11;6.30;;;5.70;;
15624;SDS011;7912;51.376;6.126;2022-08-18T16:17:47;5.03;;;4.60;;
15624;SDS011;7912;51.376;6.126;2022-08-18T16:20:18;6.33;;;5.83;;
15624;SDS011;7912;51.376;6.126;2022-08-18T16:22:49;7.20;;;5.30;;
15624;SDS011;7912;51.376;6.126;2022-08-18T16:25:20;5.57;;;5.17;;
15624;SDS011;7912;51.376;6.126;2022-08-18T16:27:47;6.63;;;6.13;;
15624;SDS011;7912;51.376;6.126;2022-08-18T16:30:18;5.73;;;5.23;;
15624;SDS011;7912;51.376;6.126;2022-08-18T16:32:51;5.33;;;4.37;;
15624;SDS011;7912;51.376;6.126;2022-08-18T16:35:19;5.67;;;5.27;;
15624;SDS011;7912;51.376;6.126;2022-08-18T16:37:47;5.53;;;5.13;;
15624;SDS011;7912;51.376;6.126;2022-08-18T16:40:16;6.17;;;5.67;;
15624;SDS011;7912;51.376;6.126;2022-08-18T16:42:45;6.47;;;5.97;;
15624;SDS011;7912;51.376;6.126;2022-08-18T16:45:19;6.07;;;5.57;;
15624;SDS011;7912;51.376;6.126;2022-08-18T16:47:46;6.00;;;5.57;;
15624;SDS011;7912;51.376;6.126;2022-08-18T16:50:15;5.67;;;5.17;;
15624;SDS011;7912;51.376;6.126;2022-08-18T16:52:45;5.30;;;4.90;;
15624;SDS011;7912;51.376;6.126;2022-08-18T16:55:12;6.33;;;5.83;;
15624;SDS011;7912;51.376;6.126;2022-08-18T16:57:40;5.67;;;5.27;;
15624;SDS011;7912;51.376;6.126;2022-08-18T17:00:28;5.90;;;5.43;;
15624;SDS011;7912;51.376;6.126;2022-08-18T17:03:21;7.20;;;6.57;;
15624;SDS011;7912;51.376;6.126;2022-08-18T17:06:12;5.67;;;5.27;;
15624;SDS011;7912;51.376;6.126;2022-08-18T17:08:42;6.10;;;5.60;;
15624;SDS011;7912;51.376;6.126;2022-08-18T17:11:12;7.03;;;6.43;;
15624;SDS011;7912;51.376;6.126;2022-08-18T17:13:44;7.80;;;7.20;;
15624;SDS011;7912;51.376;6.126;2022-08-18T17:16:15;7.13;;;6.53;;
15624;SDS011;7912;51.376;6.126;2022-08-18T17:18:45;6.67;;;6.10;;
15624;SDS011;7912;51.376;6.126;2022-08-18T17:21:15;6.60;;;6.10;;
15624;SDS011;7912;51.376;6.126;2022-08-18T17:23:47;6.83;;;6.23;;
15624;SDS011;7912;51.376;6.126;2022-08-18T17:30:02;6.17;;;5.77;;
15624;SDS011;7912;51.376;6.126;2022-08-18T17:35:37;6.67;;;6.10;;
15624;SDS011;7912;51.376;6.126;2022-08-18T17:38:10;6.60;;;6.10;;
15624;SDS011;7912;51.376;6.126;2022-08-18T17:41:13;7.50;;;6.90;;
15624;SDS011;7912;51.376;6.126;2022-08-18T17:43:45;5.97;;;5.53;;
15624;SDS011;7912;51.376;6.126;2022-08-18T17:46:17;7.53;;;6.97;;
15624;SDS011;7912;51.376;6.126;2022-08-18T17:48:57;5.90;;;5.50;;
15624;SDS011;7912;51.376;6.126;2022-08-18T17:51:44;6.50;;;6.00;;
15624;SDS011;7912;51.376;6.126;2022-08-18T17:54:29;7.37;;;6.80;;
15624;SDS011;7912;51.376;6.126;2022-08-18T17:57:07;7.93;;;7.23;;
15624;SDS011;7912;51.376;6.126;2022-08-18T18:02:37;6.13;;;5.63;;
15624;SDS011;7912;51.376;6.126;2022-08-18T18:05:08;5.33;;;4.87;;
15624;SDS011;7912;51.376;6.126;2022-08-18T18:10:21;6.70;;;6.20;;
15624;SDS011;7912;51.376;6.126;2022-08-18T18:13:28;6.67;;;6.07;;
15624;SDS011;7912;51.376;6.126;2022-08-18T18:16:02;6.83;;;6.27;;
15624;SDS011;7912;51.376;6.126;2022-08-18T18:19:03;6.80;;;6.30;;
15624;SDS011;7912;51.376;6.126;2022-08-18T18:21:38;6.70;;;6.20;;
15624;SDS011;7912;51.376;6.126;2022-08-18T18:24:33;6.90;;;6.30;;
15624;SDS011;7912;51.376;6.126;2022-08-18T18:27:39;6.03;;;5.53;;
15624;SDS011;7912;51.376;6.126;2022-08-18T18:30:07;5.53;;;5.03;;
15624;SDS011;7912;51.376;6.126;2022-08-18T18:35:29;6.87;;;6.27;;
15624;SDS011;7912;51.376;6.126;2022-08-18T18:41:05;6.40;;;5.90;;
15624;SDS011;7912;51.376;6.126;2022-08-18T18:44:03;6.10;;;5.60;;
15624;SDS011;7912;51.376;6.126;2022-08-18T18:50:12;7.03;;;6.33;;
15624;SDS011;7912;51.376;6.126;2022-08-18T18:53:23;8.55;;;7.85;;
15624;SDS011;7912;51.376;6.126;2022-08-18T18:56:28;8.77;;;8.07;;
15624;SDS011;7912;51.376;6.126;2022-08-18T19:02:26;7.70;;;7.10;;
15624;SDS011;7912;51.376;6.126;2022-08-18T19:16:35;7.43;;;6.77;;
15624;SDS011;7912;51.376;6.126;2022-08-18T19:19:43;7.87;;;7.10;;
15624;SDS011;7912;51.376;6.126;2022-08-18T19:22:30;9.83;;;9.03;;
15624;SDS011;7912;51.376;6.126;2022-08-18T19:28:17;7.60;;;7.00;;
15624;SDS011;7912;51.376;6.126;2022-08-18T19:31:24;7.93;;;7.17;;
15624;SDS011;7912;51.376;6.126;2022-08-18T19:34:13;8.13;;;7.37;;